Ostrica, Louisiana
Current Conditions -  °F | °C
As of 10:40 AM on Friday 19 Dec 2014 (Local Time) from KBVE Reporting Station
Light Rain Light Rain  
Wind Chill: 57°   Ceiling: 5000
Heat Index: 57°   Visibility: 2.5mi
Dew Point: 56°   Wind: 13mph
Humidity: 96%   Direction: 60°ENE
Pressure: 30.12"   Gusts: NA
Location:  29.2996°N, 89.4367°W
Report Text: KBVE 191640Z AUTO 06011KT 2 1/2SM -RA BR BKN050 BKN055 OVC070 14/13 A3012 RMK AO2 P0008 T01390133
Loading
Personal Weather Stations






























Interactive Weather Map New forecast layout! Learn more

10-Day Weather Forecast

Advertisements
Track Severe Weather on mobile